JBU1004 TJSJ-KJFK
Flight info
| Callsign | JBU1004 |
|---|---|
| Flight time | N/A |
| Altitude | 34000 |
| Route | ACONY3 PALDE DCT DONQU/N0463F330 DCT LUCTI/M078F340 L454 OKONU/N0451F350 DCT YAALE Y495 MOUGH/N0454F360 Y495 CAMRN |
| Aircraft | A321/M-SDE3FGHIRWY/LB1 |
Departure
| Time | 2026-04-29 21:18 |
|---|---|
| Airport | Luis Munoz Marin International Airport (TJSJ) |
Arrival
| Time | N/A |
|---|---|
| Airport | John F. Kennedy International Airport (KJFK) |
| Time | Latitude | Longitude | Altitude | Speed | Heading |
|---|---|---|---|---|---|
| 2026-04-29 20:42 | 18.43570 | -66.00746 | 18 ft | 0 kts | 57° |
| 2026-04-29 21:05 | 18.43559 | -66.00762 | 9 ft | 4 kts | 47° |
| 2026-04-29 21:06 | 18.43538 | -66.00775 | 21 ft | 4 kts | 6° |
| 2026-04-29 21:06 | 18.43511 | -66.00777 | 18 ft | 4 kts | 355° |
| 2026-04-29 21:06 | 18.43486 | -66.00770 | 21 ft | 4 kts | 328° |
| 2026-04-29 21:06 | 18.43468 | -66.00752 | 17 ft | 4 kts | 286° |
| 2026-04-29 21:07 | 18.43466 | -66.00739 | 19 ft | 1 kts | 270° |
| 2026-04-29 21:07 | 18.43466 | -66.00737 | 19 ft | 0 kts | 270° |
| 2026-04-29 21:08 | 18.43466 | -66.00738 | 17 ft | 0 kts | 270° |
| 2026-04-29 21:09 | 18.43466 | -66.00740 | 17 ft | 1 kts | 270° |
| 2026-04-29 21:09 | 18.43466 | -66.00750 | 17 ft | 2 kts | 270° |
| 2026-04-29 21:10 | 18.43466 | -66.00769 | 17 ft | 3 kts | 270° |
| 2026-04-29 21:10 | 18.43466 | -66.00797 | 17 ft | 4 kts | 270° |
| 2026-04-29 21:10 | 18.43466 | -66.00833 | 17 ft | 5 kts | 270° |
| 2026-04-29 21:10 | 18.43466 | -66.00875 | 17 ft | 6 kts | 270° |
| 2026-04-29 21:11 | 18.43466 | -66.00925 | 17 ft | 7 kts | 270° |
| 2026-04-29 21:11 | 18.43466 | -66.00980 | 17 ft | 8 kts | 270° |
| 2026-04-29 21:11 | 18.43466 | -66.01043 | 17 ft | 9 kts | 270° |
| 2026-04-29 21:11 | 18.43466 | -66.01112 | 17 ft | 10 kts | 270° |
| 2026-04-29 21:12 | 18.43467 | -66.01187 | 17 ft | 11 kts | 270° |
| 2026-04-29 21:12 | 18.43467 | -66.01268 | 17 ft | 11 kts | 270° |
| 2026-04-29 21:12 | 18.43467 | -66.01354 | 17 ft | 12 kts | 270° |
| 2026-04-29 21:12 | 18.43489 | -66.01431 | 18 ft | 11 kts | 327° |
| 2026-04-29 21:13 | 18.43566 | -66.01436 | 19 ft | 11 kts | 359° |
| 2026-04-29 21:13 | 18.43648 | -66.01437 | 17 ft | 12 kts | 0° |
| 2026-04-29 21:13 | 18.43722 | -66.01437 | 17 ft | 8 kts | 0° |
| 2026-04-29 21:13 | 18.43757 | -66.01477 | 17 ft | 8 kts | 276° |
| 2026-04-29 21:14 | 18.43755 | -66.01511 | 17 ft | 0 kts | 275° |
| 2026-04-29 21:15 | 18.43756 | -66.01514 | 17 ft | 1 kts | 278° |
| 2026-04-29 21:15 | 18.43759 | -66.01524 | 17 ft | 2 kts | 291° |
| 2026-04-29 21:16 | 18.43770 | -66.01538 | 18 ft | 3 kts | 313° |
| 2026-04-29 21:16 | 18.43789 | -66.01554 | 17 ft | 6 kts | 325° |
| 2026-04-29 21:16 | 18.43831 | -66.01568 | 18 ft | 6 kts | 6° |
| 2026-04-29 21:16 | 18.43857 | -66.01532 | 17 ft | 7 kts | 66° |
| 2026-04-29 21:17 | 18.43862 | -66.01522 | 17 ft | 1 kts | 66° |
| 2026-04-29 21:17 | 18.43953 | -66.01297 | 20 ft | 68 kts | 67° |
| 2026-04-29 21:17 | 18.44227 | -66.00622 | 18 ft | 128 kts | 66° |
| 2026-04-29 21:17 | 18.44639 | -65.99605 | 103 ft | 165 kts | 66° |
| 2026-04-29 21:18 | 18.45116 | -65.98483 | 665 ft | 170 kts | 62° |
| 2026-04-29 21:18 | 18.45994 | -65.97690 | 1232 ft | 180 kts | 20° |
| 2026-04-29 21:18 | 18.47289 | -65.97750 | 1466 ft | 202 kts | 335° |
| 2026-04-29 21:18 | 18.48305 | -65.98826 | 1631 ft | 219 kts | 300° |
| 2026-04-29 21:19 | 18.49141 | -66.00258 | 1728 ft | 242 kts | 312° |
| 2026-04-29 21:19 | 18.50606 | -66.01255 | 1965 ft | 262 kts | 338° |
| 2026-04-29 21:19 | 18.52309 | -66.02029 | 2581 ft | 270 kts | 337° |
| 2026-04-29 21:19 | 18.54012 | -66.02908 | 3290 ft | 274 kts | 325° |
| 2026-04-29 21:20 | 18.55411 | -66.04284 | 3982 ft | 276 kts | 312° |
| 2026-04-29 21:20 | 18.56708 | -66.05777 | 4729 ft | 277 kts | 312° |
| 2026-04-29 21:20 | 18.58003 | -66.07288 | 5442 ft | 278 kts | 311° |
| 2026-04-29 21:20 | 18.59311 | -66.08818 | 6099 ft | 282 kts | 311° |
| 2026-04-29 21:21 | 18.60629 | -66.10355 | 6758 ft | 284 kts | 311° |
| 2026-04-29 21:21 | 18.61964 | -66.11903 | 7403 ft | 286 kts | 311° |
| 2026-04-29 21:21 | 18.63306 | -66.13458 | 8060 ft | 287 kts | 312° |
| 2026-04-29 21:21 | 18.64635 | -66.15004 | 8697 ft | 289 kts | 311° |
| 2026-04-29 21:22 | 18.65992 | -66.16586 | 9356 ft | 291 kts | 311° |
| 2026-04-29 21:22 | 18.67356 | -66.18174 | 9968 ft | 293 kts | 311° |
| 2026-04-29 21:22 | 18.68749 | -66.19796 | 10290 ft | 307 kts | 311° |
| 2026-04-29 21:22 | 18.70235 | -66.21523 | 10419 ft | 328 kts | 311° |
| 2026-04-29 21:23 | 18.71812 | -66.23354 | 10534 ft | 347 kts | 311° |
| 2026-04-29 21:23 | 18.73467 | -66.25279 | 10779 ft | 359 kts | 311° |
| 2026-04-29 21:23 | 18.75151 | -66.27238 | 11292 ft | 362 kts | 311° |
| 2026-04-29 21:23 | 18.76852 | -66.29216 | 11796 ft | 366 kts | 311° |
| 2026-04-29 21:24 | 18.78565 | -66.31210 | 12319 ft | 368 kts | 311° |
| 2026-04-29 21:24 | 18.80294 | -66.33226 | 12855 ft | 372 kts | 311° |
| 2026-04-29 21:24 | 18.82042 | -66.35258 | 13378 ft | 374 kts | 311° |
| 2026-04-29 21:24 | 18.83776 | -66.37274 | 13894 ft | 377 kts | 311° |
| 2026-04-29 21:25 | 18.85540 | -66.39331 | 14349 ft | 379 kts | 310° |
| 2026-04-29 21:25 | 18.87313 | -66.41404 | 14832 ft | 382 kts | 310° |
| 2026-04-29 21:25 | 18.89098 | -66.43494 | 15315 ft | 384 kts | 310° |
| 2026-04-29 21:25 | 18.90892 | -66.45596 | 15817 ft | 386 kts | 310° |
| 2026-04-29 21:26 | 18.92700 | -66.47701 | 16303 ft | 388 kts | 311° |
| 2026-04-29 21:26 | 18.94579 | -66.49762 | 16786 ft | 391 kts | 313° |
| 2026-04-29 21:26 | 18.96539 | -66.51773 | 17265 ft | 393 kts | 314° |
| 2026-04-29 21:26 | 18.98545 | -66.53759 | 17744 ft | 396 kts | 315° |
| 2026-04-29 21:27 | 19.00547 | -66.55722 | 18224 ft | 398 kts | 315° |
| 2026-04-29 21:27 | 19.02608 | -66.57758 | 18643 ft | 401 kts | 314° |
| 2026-04-29 21:27 | 19.04636 | -66.59789 | 19039 ft | 403 kts | 314° |
| 2026-04-29 21:27 | 19.06642 | -66.61816 | 19429 ft | 406 kts | 313° |
| 2026-04-29 21:28 | 19.08693 | -66.63876 | 19831 ft | 408 kts | 314° |
| 2026-04-29 21:28 | 19.10817 | -66.65892 | 20198 ft | 412 kts | 315° |
| 2026-04-29 21:28 | 19.13000 | -66.67869 | 20565 ft | 415 kts | 316° |
| 2026-04-29 21:28 | 19.15222 | -66.69829 | 20922 ft | 417 kts | 316° |
| 2026-04-29 21:29 | 19.17464 | -66.71795 | 21275 ft | 419 kts | 316° |
| 2026-04-29 21:29 | 19.19710 | -66.73778 | 21618 ft | 422 kts | 316° |
| 2026-04-29 21:29 | 19.21957 | -66.75786 | 21955 ft | 424 kts | 315° |
| 2026-04-29 21:29 | 19.24203 | -66.77817 | 22285 ft | 426 kts | 315° |
| 2026-04-29 21:30 | 19.26453 | -66.79864 | 22641 ft | 427 kts | 315° |
| 2026-04-29 21:30 | 19.28715 | -66.81923 | 22991 ft | 429 kts | 315° |
| 2026-04-29 21:30 | 19.30984 | -66.83986 | 23325 ft | 431 kts | 315° |
| 2026-04-29 21:30 | 19.33268 | -66.86062 | 23638 ft | 433 kts | 315° |
| 2026-04-29 21:31 | 19.35528 | -66.88115 | 23908 ft | 435 kts | 315° |
| 2026-04-29 21:31 | 19.37830 | -66.90205 | 24196 ft | 436 kts | 315° |
| 2026-04-29 21:31 | 19.40144 | -66.92306 | 24477 ft | 438 kts | 315° |
| 2026-04-29 21:31 | 19.42458 | -66.94408 | 24766 ft | 439 kts | 315° |
| 2026-04-29 21:32 | 19.44786 | -66.96522 | 25058 ft | 441 kts | 315° |
| 2026-04-29 21:32 | 19.47119 | -66.98641 | 25352 ft | 442 kts | 315° |
| 2026-04-29 21:32 | 19.49464 | -67.00771 | 25638 ft | 443 kts | 315° |
| 2026-04-29 21:32 | 19.51807 | -67.02903 | 25911 ft | 445 kts | 315° |
| 2026-04-29 21:33 | 19.54156 | -67.05045 | 26196 ft | 446 kts | 315° |
| 2026-04-29 21:33 | 19.56515 | -67.07197 | 26469 ft | 447 kts | 315° |
| 2026-04-29 21:33 | 19.58848 | -67.09324 | 26732 ft | 449 kts | 315° |
| 2026-04-29 21:33 | 19.61228 | -67.11487 | 27007 ft | 450 kts | 315° |
| 2026-04-29 21:34 | 19.63606 | -67.13651 | 27295 ft | 451 kts | 314° |
| 2026-04-29 21:34 | 19.65989 | -67.15824 | 27573 ft | 452 kts | 314° |
| 2026-04-29 21:34 | 19.68380 | -67.18006 | 27846 ft | 454 kts | 314° |
| 2026-04-29 21:34 | 19.70775 | -67.20195 | 28114 ft | 455 kts | 314° |
| 2026-04-29 21:35 | 19.73179 | -67.22390 | 28405 ft | 456 kts | 314° |
| 2026-04-29 21:35 | 19.75590 | -67.24589 | 28700 ft | 457 kts | 314° |
| 2026-04-29 21:35 | 19.77999 | -67.26785 | 29072 ft | 455 kts | 314° |
| 2026-04-29 21:35 | 19.80398 | -67.28972 | 29463 ft | 454 kts | 314° |
| 2026-04-29 21:36 | 19.82790 | -67.31155 | 29849 ft | 452 kts | 314° |
| 2026-04-29 21:36 | 19.85142 | -67.33307 | 30195 ft | 451 kts | 314° |
| 2026-04-29 21:36 | 19.87515 | -67.35480 | 30516 ft | 449 kts | 313° |
| 2026-04-29 21:36 | 19.89877 | -67.37645 | 30837 ft | 447 kts | 313° |
| 2026-04-29 21:37 | 19.92233 | -67.39807 | 31162 ft | 446 kts | 313° |
| 2026-04-29 21:37 | 19.94576 | -67.41954 | 31485 ft | 444 kts | 313° |
| 2026-04-29 21:37 | 19.96913 | -67.44092 | 31815 ft | 442 kts | 313° |
| 2026-04-29 21:37 | 19.99238 | -67.46220 | 32128 ft | 441 kts | 313° |
| 2026-04-29 21:38 | 20.01560 | -67.48346 | 32445 ft | 439 kts | 313° |
| 2026-04-29 21:38 | 20.03870 | -67.50464 | 32759 ft | 438 kts | 312° |
| 2026-04-29 21:38 | 20.06140 | -67.52550 | 33063 ft | 436 kts | 312° |
| 2026-04-29 21:38 | 20.08429 | -67.54656 | 33377 ft | 434 kts | 312° |
| 2026-04-29 21:39 | 20.10717 | -67.56762 | 33655 ft | 434 kts | 312° |
| 2026-04-29 21:39 | 20.12997 | -67.58858 | 33905 ft | 434 kts | 312° |
| 2026-04-29 21:39 | 20.15280 | -67.60955 | 33981 ft | 433 kts | 312° |
| 2026-04-29 21:40 | 20.19830 | -67.65144 | 33992 ft | 432 kts | 311° |
| 2026-04-29 21:40 | 20.24376 | -67.69347 | 33990 ft | 432 kts | 311° |
| 2026-04-29 21:41 | 20.28934 | -67.73543 | 33992 ft | 432 kts | 312° |
| 2026-04-29 21:41 | 20.33451 | -67.77698 | 33989 ft | 429 kts | 311° |
| 2026-04-29 21:42 | 20.37959 | -67.81851 | 33992 ft | 427 kts | 311° |
| 2026-04-29 21:42 | 20.41726 | -67.85329 | 33991 ft | 427 kts | 311° |
| 2026-04-29 21:43 | 20.46947 | -67.90161 | 33995 ft | 427 kts | 311° |
| 2026-04-29 21:43 | 20.51434 | -67.94330 | 33995 ft | 427 kts | 311° |
| 2026-04-29 21:44 | 20.55924 | -67.98492 | 33990 ft | 427 kts | 311° |
| 2026-04-29 21:44 | 20.60416 | -68.02653 | 33995 ft | 427 kts | 311° |
| 2026-04-29 21:45 | 20.64880 | -68.06791 | 33998 ft | 428 kts | 311° |
| 2026-04-29 21:45 | 20.69445 | -68.10880 | 33993 ft | 432 kts | 317° |
| 2026-04-29 21:45 | 20.72111 | -68.12445 | 33996 ft | 444 kts | 328° |
| 2026-04-29 21:46 | 20.75110 | -68.13445 | 34002 ft | 459 kts | 338° |
| 2026-04-29 21:46 | 20.81393 | -68.14804 | 34000 ft | 461 kts | 339° |
| 2026-04-29 21:47 | 20.87678 | -68.16162 | 34019 ft | 461 kts | 338° |
| 2026-04-29 21:47 | 20.90819 | -68.16847 | 34245 ft | 460 kts | 338° |
| 2026-04-29 21:47 | 20.93915 | -68.17524 | 34473 ft | 460 kts | 338° |
| 2026-04-29 21:47 | 20.97045 | -68.18212 | 34701 ft | 459 kts | 338° |
| 2026-04-29 21:48 | 21.00174 | -68.18900 | 34932 ft | 459 kts | 338° |
| 2026-04-29 21:48 | 21.05390 | -68.20048 | 34998 ft | 459 kts | 338° |
| 2026-04-29 21:49 | 21.11649 | -68.21432 | 35002 ft | 459 kts | 338° |
| 2026-04-29 21:49 | 21.17914 | -68.22814 | 35006 ft | 459 kts | 338° |
| 2026-04-29 21:50 | 21.24176 | -68.24190 | 35008 ft | 459 kts | 338° |
| 2026-04-29 21:50 | 21.30438 | -68.25563 | 35008 ft | 459 kts | 338° |
| 2026-04-29 21:51 | 21.36700 | -68.26948 | 35008 ft | 459 kts | 338° |
| 2026-04-29 21:51 | 21.46082 | -68.29021 | 35008 ft | 459 kts | 338° |
| 2026-04-29 21:52 | 21.52302 | -68.30394 | 35008 ft | 459 kts | 338° |
| 2026-04-29 21:52 | 21.58552 | -68.31784 | 35002 ft | 459 kts | 338° |
| 2026-04-29 21:53 | 21.64810 | -68.33166 | 35013 ft | 459 kts | 338° |
| 2026-04-29 21:53 | 21.71063 | -68.34548 | 34998 ft | 459 kts | 338° |
| 2026-04-29 21:54 | 21.77312 | -68.35944 | 35005 ft | 458 kts | 338° |
| 2026-04-29 21:54 | 21.83563 | -68.37340 | 35014 ft | 458 kts | 338° |
| 2026-04-29 21:55 | 21.89820 | -68.38728 | 35010 ft | 458 kts | 338° |
| 2026-04-29 21:55 | 21.96027 | -68.40105 | 35017 ft | 458 kts | 338° |
| 2026-04-29 21:56 | 22.02260 | -68.41492 | 35013 ft | 457 kts | 338° |
| 2026-04-29 21:56 | 22.08486 | -68.42882 | 35013 ft | 457 kts | 338° |
| 2026-04-29 21:57 | 22.14714 | -68.44275 | 35015 ft | 456 kts | 338° |
| 2026-04-29 21:57 | 22.20890 | -68.45651 | 35016 ft | 456 kts | 338° |
| 2026-04-29 21:58 | 22.27105 | -68.47041 | 35026 ft | 456 kts | 339° |
| 2026-04-29 21:58 | 22.33306 | -68.48424 | 35016 ft | 454 kts | 339° |
| 2026-04-29 21:59 | 22.39492 | -68.49815 | 35019 ft | 454 kts | 339° |
| 2026-04-29 21:59 | 22.45683 | -68.51207 | 35018 ft | 454 kts | 339° |
| 2026-04-29 22:00 | 22.51882 | -68.52587 | 35024 ft | 454 kts | 339° |
| 2026-04-29 22:00 | 22.58037 | -68.53968 | 35042 ft | 454 kts | 339° |
| 2026-04-29 22:01 | 22.64236 | -68.55365 | 35028 ft | 454 kts | 340° |
| 2026-04-29 22:01 | 22.70427 | -68.56766 | 35021 ft | 454 kts | 340° |
| 2026-04-29 22:02 | 22.76621 | -68.58160 | 35024 ft | 454 kts | 340° |
| 2026-04-29 22:02 | 22.82821 | -68.59549 | 35023 ft | 454 kts | 340° |
| 2026-04-29 22:03 | 22.88976 | -68.60935 | 35050 ft | 455 kts | 340° |
| 2026-04-29 22:03 | 22.95183 | -68.62339 | 35027 ft | 455 kts | 340° |
| 2026-04-29 22:04 | 23.01385 | -68.63745 | 35030 ft | 455 kts | 340° |
| 2026-04-29 22:04 | 23.07597 | -68.65155 | 35030 ft | 455 kts | 340° |
| 2026-04-29 22:05 | 23.13803 | -68.66557 | 35030 ft | 455 kts | 340° |
| 2026-04-29 22:06 | 23.23109 | -68.68667 | 35030 ft | 455 kts | 340° |
| 2026-04-29 22:06 | 23.29273 | -68.70068 | 35030 ft | 455 kts | 340° |
| 2026-04-29 22:07 | 23.35488 | -68.71478 | 35030 ft | 456 kts | 340° |
| 2026-04-29 22:07 | 23.41698 | -68.72887 | 35029 ft | 455 kts | 340° |
| 2026-04-29 22:08 | 23.47906 | -68.74301 | 35030 ft | 455 kts | 340° |
| 2026-04-29 22:08 | 23.54107 | -68.75723 | 35033 ft | 455 kts | 340° |
| 2026-04-29 22:09 | 23.60275 | -68.77134 | 35035 ft | 455 kts | 340° |
| 2026-04-29 22:09 | 23.66475 | -68.78544 | 35035 ft | 455 kts | 341° |
| 2026-04-29 22:10 | 23.72686 | -68.79959 | 35035 ft | 455 kts | 340° |
| 2026-04-29 22:10 | 23.78885 | -68.81375 | 35041 ft | 455 kts | 340° |
| 2026-04-29 22:11 | 23.85086 | -68.82801 | 35040 ft | 456 kts | 341° |
| 2026-04-29 22:11 | 23.91301 | -68.84223 | 35040 ft | 456 kts | 341° |
| 2026-04-29 22:12 | 23.97515 | -68.85647 | 35042 ft | 456 kts | 341° |
| 2026-04-29 22:12 | 24.03696 | -68.87070 | 35043 ft | 457 kts | 341° |
| 2026-04-29 22:13 | 24.09915 | -68.88502 | 35043 ft | 457 kts | 341° |
| 2026-04-29 22:13 | 24.16153 | -68.89939 | 35038 ft | 458 kts | 341° |
| 2026-04-29 22:14 | 24.22387 | -68.91367 | 35040 ft | 458 kts | 341° |
| 2026-04-29 22:14 | 24.28632 | -68.92804 | 35043 ft | 458 kts | 341° |
| 2026-04-29 22:15 | 24.34828 | -68.94231 | 35046 ft | 458 kts | 341° |
| 2026-04-29 22:15 | 24.41068 | -68.95673 | 35046 ft | 458 kts | 341° |
| 2026-04-29 22:16 | 24.47304 | -68.97123 | 35043 ft | 457 kts | 341° |
| 2026-04-29 22:16 | 24.53540 | -68.98570 | 35049 ft | 458 kts | 341° |
| 2026-04-29 22:17 | 24.59782 | -69.00017 | 35048 ft | 458 kts | 341° |
| 2026-04-29 22:17 | 24.65975 | -69.01445 | 35048 ft | 458 kts | 341° |
| 2026-04-29 22:18 | 24.72208 | -69.02887 | 35048 ft | 458 kts | 341° |
| 2026-04-29 22:18 | 24.78439 | -69.04334 | 35050 ft | 457 kts | 342° |
| 2026-04-29 22:19 | 24.84666 | -69.05794 | 35048 ft | 457 kts | 342° |
| 2026-04-29 22:19 | 24.90893 | -69.07250 | 35049 ft | 458 kts | 342° |
| 2026-04-29 22:20 | 24.97123 | -69.08690 | 35058 ft | 457 kts | 342° |
| 2026-04-29 22:20 | 25.03360 | -69.10115 | 35053 ft | 458 kts | 343° |
| 2026-04-29 22:21 | 25.09647 | -69.11407 | 35049 ft | 460 kts | 344° |
| 2026-04-29 22:21 | 25.15918 | -69.12656 | 35048 ft | 460 kts | 344° |
| 2026-04-29 22:22 | 25.22219 | -69.13939 | 35049 ft | 460 kts | 343° |
| 2026-04-29 22:22 | 25.28512 | -69.15248 | 35053 ft | 460 kts | 343° |
| 2026-04-29 22:23 | 25.34808 | -69.16557 | 35062 ft | 460 kts | 344° |
| 2026-04-29 22:23 | 25.41111 | -69.17856 | 35054 ft | 460 kts | 344° |
| 2026-04-29 22:24 | 25.47366 | -69.19146 | 35054 ft | 460 kts | 344° |
| 2026-04-29 22:24 | 25.53671 | -69.20457 | 35053 ft | 460 kts | 344° |
| 2026-04-29 22:25 | 25.59971 | -69.21764 | 35054 ft | 461 kts | 344° |
| 2026-04-29 22:25 | 25.66276 | -69.23077 | 35056 ft | 461 kts | 345° |
| 2026-04-29 22:26 | 25.72570 | -69.24398 | 35055 ft | 460 kts | 345° |
| 2026-04-29 22:26 | 25.78875 | -69.25714 | 35054 ft | 460 kts | 345° |
| 2026-04-29 22:27 | 25.85131 | -69.27010 | 35052 ft | 460 kts | 345° |
| 2026-04-29 22:27 | 25.91430 | -69.28326 | 35052 ft | 460 kts | 345° |
| 2026-04-29 22:28 | 25.97737 | -69.29646 | 35054 ft | 462 kts | 346° |
| 2026-04-29 22:28 | 26.04071 | -69.30975 | 35055 ft | 463 kts | 346° |
| 2026-04-29 22:29 | 26.09337 | -69.32083 | 35056 ft | 463 kts | 346° |
| 2026-04-29 22:29 | 26.16705 | -69.33623 | 35057 ft | 463 kts | 346° |
| 2026-04-29 22:30 | 26.23041 | -69.34952 | 35057 ft | 463 kts | 346° |
| 2026-04-29 22:30 | 26.29378 | -69.36293 | 35057 ft | 463 kts | 346° |
| 2026-04-29 22:31 | 26.35716 | -69.37628 | 35055 ft | 463 kts | 346° |
| 2026-04-29 22:31 | 26.42066 | -69.38962 | 35053 ft | 463 kts | 346° |
| 2026-04-29 22:32 | 26.48402 | -69.40293 | 35053 ft | 463 kts | 346° |
| 2026-04-29 22:32 | 26.54702 | -69.41617 | 35052 ft | 464 kts | 346° |
| 2026-04-29 22:33 | 26.61053 | -69.42959 | 35057 ft | 464 kts | 346° |
| 2026-04-29 22:33 | 26.67397 | -69.44303 | 35055 ft | 464 kts | 346° |
| 2026-04-29 22:34 | 26.73745 | -69.45658 | 35060 ft | 464 kts | 346° |
| 2026-04-29 22:34 | 26.80094 | -69.47010 | 35056 ft | 464 kts | 346° |
| 2026-04-29 22:35 | 26.86443 | -69.48355 | 35065 ft | 465 kts | 347° |
| 2026-04-29 22:35 | 26.89618 | -69.49028 | 35309 ft | 464 kts | 347° |
| 2026-04-29 22:35 | 26.92748 | -69.49690 | 35585 ft | 463 kts | 347° |
| 2026-04-29 22:35 | 26.95948 | -69.50368 | 35876 ft | 461 kts | 347° |
| 2026-04-29 22:36 | 26.99059 | -69.51031 | 36023 ft | 461 kts | 347° |
| 2026-04-29 22:36 | 27.05357 | -69.52376 | 36060 ft | 459 kts | 347° |
| 2026-04-29 22:37 | 27.11632 | -69.53721 | 36051 ft | 459 kts | 347° |
| 2026-04-29 22:37 | 27.17884 | -69.55060 | 36056 ft | 456 kts | 348° |
| 2026-04-29 22:38 | 27.24111 | -69.56388 | 36051 ft | 455 kts | 348° |
| 2026-04-29 22:38 | 27.30328 | -69.57722 | 36053 ft | 455 kts | 348° |
| 2026-04-29 22:39 | 27.36505 | -69.59047 | 36046 ft | 455 kts | 348° |
| 2026-04-29 22:39 | 27.42727 | -69.60387 | 36050 ft | 454 kts | 348° |
| 2026-04-29 22:40 | 27.47886 | -69.61489 | 36052 ft | 453 kts | 348° |
| 2026-04-29 22:40 | 27.54084 | -69.62814 | 36054 ft | 453 kts | 348° |
| 2026-04-29 22:41 | 27.60271 | -69.64154 | 36051 ft | 453 kts | 348° |
| 2026-04-29 22:41 | 27.66467 | -69.65494 | 36051 ft | 453 kts | 348° |
| 2026-04-29 22:42 | 27.72662 | -69.66835 | 36051 ft | 452 kts | 347° |
| 2026-04-29 22:42 | 27.78808 | -69.68159 | 36048 ft | 452 kts | 348° |
| 2026-04-29 22:43 | 27.84985 | -69.69486 | 36054 ft | 452 kts | 348° |
| 2026-04-29 22:43 | 27.91156 | -69.70824 | 36048 ft | 451 kts | 347° |
| 2026-04-29 22:44 | 27.97332 | -69.72171 | 36049 ft | 451 kts | 347° |
| 2026-04-29 22:44 | 28.03499 | -69.73502 | 36047 ft | 451 kts | 347° |
| 2026-04-29 22:45 | 28.09664 | -69.74831 | 36048 ft | 451 kts | 347° |
| 2026-04-29 22:45 | 28.16821 | -69.76403 | 36049 ft | 451 kts | 347° |
| 2026-04-29 22:46 | 28.21940 | -69.77521 | 36049 ft | 451 kts | 347° |
| 2026-04-29 22:46 | 28.28098 | -69.78866 | 36049 ft | 450 kts | 347° |
| 2026-04-29 22:47 | 28.34255 | -69.80204 | 36053 ft | 450 kts | 347° |
| 2026-04-29 22:47 | 28.40407 | -69.81543 | 36053 ft | 450 kts | 347° |
| 2026-04-29 22:48 | 28.46523 | -69.82882 | 36055 ft | 450 kts | 347° |
| 2026-04-29 22:48 | 28.52671 | -69.84235 | 36047 ft | 450 kts | 347° |
| 2026-04-29 22:49 | 28.58820 | -69.85590 | 36051 ft | 449 kts | 347° |
| 2026-04-29 22:49 | 28.64954 | -69.86933 | 36046 ft | 449 kts | 347° |
| 2026-04-29 22:50 | 28.71092 | -69.88277 | 36047 ft | 449 kts | 347° |
| 2026-04-29 22:50 | 28.77235 | -69.89639 | 36046 ft | 449 kts | 347° |
| 2026-04-29 22:51 | 28.83334 | -69.90992 | 36046 ft | 449 kts | 347° |
| 2026-04-29 22:51 | 28.92552 | -69.93012 | 36042 ft | 449 kts | 346° |
| 2026-04-29 22:52 | 28.98697 | -69.94365 | 36047 ft | 450 kts | 346° |
| 2026-04-29 22:52 | 29.04845 | -69.95720 | 36047 ft | 450 kts | 346° |
| 2026-04-29 22:53 | 29.10994 | -69.97096 | 36049 ft | 449 kts | 346° |
| 2026-04-29 22:53 | 29.17095 | -69.98449 | 36049 ft | 449 kts | 346° |
| 2026-04-29 22:54 | 29.23243 | -69.99814 | 36046 ft | 450 kts | 346° |
| 2026-04-29 22:54 | 29.29392 | -70.01181 | 36047 ft | 450 kts | 346° |
| 2026-04-29 22:55 | 29.35537 | -70.02555 | 36046 ft | 450 kts | 346° |
| 2026-04-29 22:55 | 29.41682 | -70.03923 | 36057 ft | 450 kts | 346° |
| 2026-04-29 22:56 | 29.47788 | -70.05293 | 36044 ft | 450 kts | 346° |
| 2026-04-29 22:56 | 29.53942 | -70.06678 | 36043 ft | 450 kts | 346° |
| 2026-04-29 22:57 | 29.60106 | -70.08052 | 36044 ft | 450 kts | 346° |
| 2026-04-29 22:57 | 29.66261 | -70.09415 | 36042 ft | 450 kts | 346° |
| 2026-04-29 22:58 | 29.72414 | -70.10795 | 36044 ft | 450 kts | 346° |
| 2026-04-29 22:58 | 29.78563 | -70.12180 | 36040 ft | 450 kts | 346° |
| 2026-04-29 22:59 | 29.84672 | -70.13561 | 36043 ft | 450 kts | 346° |
| 2026-04-29 22:59 | 29.90818 | -70.14939 | 36040 ft | 450 kts | 346° |
| 2026-04-29 23:00 | 29.96968 | -70.16326 | 36043 ft | 450 kts | 346° |
| 2026-04-29 23:00 | 30.03110 | -70.17715 | 36040 ft | 449 kts | 346° |
| 2026-04-29 23:01 | 30.09242 | -70.19112 | 36037 ft | 449 kts | 346° |
| 2026-04-29 23:01 | 30.15375 | -70.20494 | 36036 ft | 448 kts | 346° |
| 2026-04-29 23:02 | 30.21457 | -70.21868 | 36038 ft | 448 kts | 346° |
| 2026-04-29 23:02 | 30.27570 | -70.23261 | 36043 ft | 447 kts | 345° |
| 2026-04-29 23:03 | 30.33660 | -70.24645 | 36035 ft | 445 kts | 345° |
| 2026-04-29 23:03 | 30.39734 | -70.26024 | 36035 ft | 445 kts | 345° |
| 2026-04-29 23:04 | 30.45815 | -70.27405 | 36030 ft | 445 kts | 345° |
| 2026-04-29 23:04 | 30.51886 | -70.28795 | 36030 ft | 444 kts | 345° |
| 2026-04-29 23:05 | 30.57945 | -70.30175 | 36026 ft | 442 kts | 345° |
| 2026-04-29 23:05 | 30.63938 | -70.31549 | 36030 ft | 441 kts | 345° |
| 2026-04-29 23:06 | 30.69971 | -70.32926 | 36029 ft | 441 kts | 345° |
| 2026-04-29 23:06 | 30.75995 | -70.34308 | 36030 ft | 441 kts | 345° |
| 2026-04-29 23:07 | 30.82018 | -70.35696 | 36043 ft | 441 kts | 345° |
| 2026-04-29 23:07 | 30.88030 | -70.37083 | 36024 ft | 440 kts | 345° |
| 2026-04-29 23:08 | 30.94039 | -70.38466 | 36024 ft | 440 kts | 345° |
| 2026-04-29 23:08 | 31.00088 | -70.39861 | 36025 ft | 448 kts | 345° |
| 2026-04-29 23:09 | 31.06200 | -70.41265 | 36022 ft | 443 kts | 345° |
| 2026-04-29 23:09 | 31.12224 | -70.42651 | 36022 ft | 439 kts | 344° |
| 2026-04-29 23:10 | 31.18216 | -70.44037 | 36023 ft | 439 kts | 344° |
| 2026-04-29 23:10 | 31.24207 | -70.45431 | 36017 ft | 439 kts | 344° |
| 2026-04-29 23:11 | 31.30165 | -70.46816 | 36017 ft | 439 kts | 344° |
| 2026-04-29 23:11 | 31.36155 | -70.48202 | 36019 ft | 439 kts | 344° |
| 2026-04-29 23:12 | 31.42138 | -70.49590 | 36013 ft | 438 kts | 344° |
| 2026-04-29 23:12 | 31.48117 | -70.50978 | 36016 ft | 438 kts | 344° |
| 2026-04-29 23:13 | 31.54095 | -70.52373 | 36016 ft | 438 kts | 344° |
| 2026-04-29 23:13 | 31.60037 | -70.53765 | 36014 ft | 438 kts | 344° |
| 2026-04-29 23:14 | 31.66011 | -70.55167 | 36005 ft | 437 kts | 343° |
| 2026-04-29 23:14 | 31.71979 | -70.56564 | 36022 ft | 436 kts | 343° |
| 2026-04-29 23:15 | 31.77938 | -70.57959 | 36005 ft | 436 kts | 343° |
| 2026-04-29 23:15 | 31.83892 | -70.59354 | 36013 ft | 436 kts | 343° |
| 2026-04-29 23:16 | 31.89849 | -70.60755 | 36005 ft | 437 kts | 343° |
| 2026-04-29 23:16 | 31.95819 | -70.62158 | 36005 ft | 437 kts | 343° |
| 2026-04-29 23:17 | 32.01739 | -70.63560 | 36008 ft | 437 kts | 343° |
| 2026-04-29 23:17 | 32.07709 | -70.64969 | 35999 ft | 437 kts | 343° |
| 2026-04-29 23:18 | 32.13674 | -70.66374 | 36015 ft | 437 kts | 343° |
| 2026-04-29 23:18 | 32.19635 | -70.67784 | 36002 ft | 436 kts | 343° |
| 2026-04-29 23:19 | 32.25549 | -70.69183 | 36005 ft | 436 kts | 343° |
| 2026-04-29 23:19 | 32.31495 | -70.70589 | 36005 ft | 436 kts | 343° |
| 2026-04-29 23:20 | 32.37444 | -70.72002 | 36005 ft | 436 kts | 343° |
| 2026-04-29 23:20 | 32.43397 | -70.73420 | 36005 ft | 436 kts | 343° |
| 2026-04-29 23:21 | 32.49295 | -70.74828 | 36007 ft | 435 kts | 342° |
| 2026-04-29 23:21 | 32.55241 | -70.76245 | 36005 ft | 435 kts | 343° |
| 2026-04-29 23:22 | 32.61183 | -70.77658 | 36002 ft | 435 kts | 343° |
| 2026-04-29 23:22 | 32.67125 | -70.79085 | 36004 ft | 435 kts | 342° |
| 2026-04-29 23:23 | 32.73070 | -70.80517 | 36004 ft | 436 kts | 342° |
| 2026-04-29 23:23 | 32.78975 | -70.81933 | 36002 ft | 435 kts | 342° |
| 2026-04-29 23:24 | 32.84919 | -70.83359 | 35999 ft | 435 kts | 342° |
| 2026-04-29 23:24 | 32.90859 | -70.84782 | 36000 ft | 435 kts | 342° |
| 2026-04-29 23:25 | 32.96803 | -70.86212 | 35997 ft | 435 kts | 342° |
| 2026-04-29 23:25 | 33.02746 | -70.87650 | 35994 ft | 436 kts | 342° |
| 2026-04-29 23:26 | 33.08698 | -70.89088 | 35996 ft | 437 kts | 342° |
| 2026-04-29 23:26 | 33.14615 | -70.90512 | 35997 ft | 437 kts | 342° |
| 2026-04-29 23:27 | 33.20579 | -70.91952 | 35994 ft | 437 kts | 342° |
| 2026-04-29 23:27 | 33.26539 | -70.93406 | 35979 ft | 437 kts | 341° |
| 2026-04-29 23:28 | 33.32497 | -70.94862 | 35998 ft | 437 kts | 342° |
| 2026-04-29 23:28 | 33.38466 | -70.96308 | 35984 ft | 437 kts | 342° |
| 2026-04-29 23:29 | 33.44390 | -70.97745 | 35999 ft | 437 kts | 342° |
| 2026-04-29 23:29 | 33.50354 | -70.99202 | 36023 ft | 437 kts | 341° |
| 2026-04-29 23:30 | 33.55305 | -71.00414 | 35986 ft | 436 kts | 341° |
| 2026-04-29 23:30 | 33.61260 | -71.01860 | 35989 ft | 436 kts | 341° |
| 2026-04-29 23:31 | 33.67221 | -71.03320 | 35986 ft | 436 kts | 341° |
| 2026-04-29 23:31 | 33.73172 | -71.04774 | 35989 ft | 436 kts | 341° |
| 2026-04-29 23:32 | 33.79118 | -71.06234 | 35987 ft | 436 kts | 341° |
| 2026-04-29 23:32 | 33.85026 | -71.07698 | 35989 ft | 435 kts | 341° |
| 2026-04-29 23:33 | 33.90958 | -71.09159 | 35987 ft | 435 kts | 341° |
| 2026-04-29 23:33 | 33.96891 | -71.10618 | 35985 ft | 435 kts | 341° |
| 2026-04-29 23:34 | 34.02832 | -71.12080 | 36008 ft | 436 kts | 341° |
| 2026-04-29 23:34 | 34.08742 | -71.13541 | 35983 ft | 437 kts | 341° |
| 2026-04-29 23:35 | 34.14706 | -71.15015 | 35983 ft | 437 kts | 341° |
| 2026-04-29 23:35 | 34.20628 | -71.16482 | 35983 ft | 437 kts | 340° |
| 2026-04-29 23:36 | 34.26590 | -71.17971 | 35983 ft | 437 kts | 341° |
| 2026-04-29 23:36 | 34.32570 | -71.19459 | 35983 ft | 440 kts | 340° |
| 2026-04-29 23:37 | 34.38576 | -71.20956 | 35980 ft | 440 kts | 340° |
| 2026-04-29 23:37 | 34.44587 | -71.22452 | 35980 ft | 441 kts | 340° |
| 2026-04-29 23:38 | 34.50599 | -71.23948 | 35983 ft | 441 kts | 340° |
| 2026-04-29 23:38 | 34.56612 | -71.25461 | 35983 ft | 441 kts | 340° |
| 2026-04-29 23:39 | 34.62588 | -71.26953 | 35978 ft | 441 kts | 340° |
| 2026-04-29 23:39 | 34.68595 | -71.28462 | 35978 ft | 441 kts | 340° |
| 2026-04-29 23:40 | 34.74604 | -71.29976 | 35983 ft | 441 kts | 340° |
| 2026-04-29 23:40 | 34.80620 | -71.31486 | 35982 ft | 441 kts | 340° |
| 2026-04-29 23:41 | 34.86637 | -71.33008 | 35980 ft | 441 kts | 340° |
| 2026-04-29 23:41 | 34.92648 | -71.34525 | 35980 ft | 441 kts | 340° |
| 2026-04-29 23:42 | 34.98625 | -71.36032 | 35978 ft | 441 kts | 340° |
| 2026-04-29 23:42 | 35.04650 | -71.37550 | 35997 ft | 442 kts | 340° |
| 2026-04-29 23:43 | 35.10660 | -71.39071 | 35978 ft | 441 kts | 340° |
| 2026-04-29 23:43 | 35.16665 | -71.40597 | 35977 ft | 441 kts | 340° |
| 2026-04-29 23:44 | 35.22671 | -71.42125 | 35978 ft | 441 kts | 340° |
| 2026-04-29 23:44 | 35.28667 | -71.43662 | 35978 ft | 440 kts | 340° |
| 2026-04-29 23:45 | 35.34662 | -71.45197 | 35976 ft | 439 kts | 340° |
| 2026-04-29 23:45 | 35.40621 | -71.46713 | 35975 ft | 439 kts | 340° |
| 2026-04-29 23:46 | 35.46603 | -71.48234 | 35979 ft | 439 kts | 340° |
| 2026-04-29 23:46 | 35.52598 | -71.49767 | 35977 ft | 440 kts | 340° |
| 2026-04-29 23:47 | 35.58585 | -71.51307 | 35972 ft | 439 kts | 339° |
| 2026-04-29 23:47 | 35.64564 | -71.52849 | 35976 ft | 439 kts | 339° |
| 2026-04-29 23:48 | 35.70537 | -71.54392 | 35972 ft | 439 kts | 339° |
| 2026-04-29 23:48 | 35.76520 | -71.55932 | 35977 ft | 439 kts | 340° |
| 2026-04-29 23:49 | 35.82475 | -71.57470 | 35974 ft | 441 kts | 339° |